Terminal Aerodrome Forecast
Issued by NWS New Orleans/Baton Rouge, LA

Home | Current Version | Previous Version | Text Only | Print | Product List | Glossary On
Versions: 1 2 3 4 5 6 7 8 9 10 11 12 13 14 15 16 17 18 19 20 21 22 23 24 25 26 27 28 29 30 31 32
115
FTUS44 KLIX 190547
TAFNEW
TAF
KNEW 190547Z 1906/2006 19006KT 5SM BR VCSH OVC006
      TEMPO 1911/1915 2SM BR OVC003
     FM191600 18012KT 3SM BR VCSH OVC035
     FM192000 22012KT 6SM -SHRA VCTS OVC035CB
      TEMPO 1920/1923 3SM TSRA BKN025CB
     FM200300 20007KT 4SM BR OVC006=

USA.gov is the U.S. government's official web portal to all federal, state and local government web resources and services.